Mikimiki — WTW9266 — position and weather

sailwx.info

Track history (hours):
 
Tides and Currents Weather Stations Pressure Air Temp Water Temp Dewpoint Dewpoint Depression Visibility Wind Speed Wind Dir Waves Ship Positions

Mikimiki

More information available from US FCC via Universal Licensing System and Coast Guard Vessel Documentation Center.

Last reported at 2014-Jan-03 22:09 UTC. Time now 2014-Sep-16 03:01 UTC.
Position N 48°12' W 123°56'.
Warning: this ship's position is months out of date.

Type: Tow > 200 m length. MMSI: 338060038.

Date/timePositionNaut miles runAvg speedWind from/ knotsBaromVisibWave heightAir tempDewpointWater temp
2014-Jan-03 22:09N 48°12' W 123°56'3 4.4
2014-Jan-03 21:33N 48°12' W 123°52'4 4.5
2014-Jan-03 20:33N 48°12' W 123°45'5 5.1
2014-Jan-03 19:33N 48°11' W 123°38'5 4.8
2014-Jan-03 18:32N 48°12' W 123°30'4 4.3
2014-Jan-03 17:31N 48°12' W 123°24'4 3.9
2014-Jan-03 16:34N 48°12' W 123°18'4 3.6
2014-Jan-03 15:33N 48°12' W 123°13'3 2.8
2014-Jan-03 14:34N 48°13' W 123°08'2 1.7
2014-Jan-03 13:33N 48°13' W 123°06'1 0.6
2014-Jan-03 12:33N 48°13' W 123°05'1 0.7
2014-Jan-03 11:33N 48°13' W 123°04'1 0.6
2014-Jan-03 10:31N 48°12' W 123°03'37 4.6
2014-Jan-03 02:34N 47°46' W 122°25'7 7.0
2014-Jan-03 01:34N 47°39' W 122°27'5 4.8
2014-Jan-03 00:33N 47°36' W 122°22'0 0.0
2014-Jan-02 23:33N 47°36' W 122°22'2 2.4
2014-Jan-02 22:33N 47°33' W 122°21'0 0.0
2014-Jan-02 21:33N 47°33' W 122°21'  
2013-Dec-30 22:22N 47°33' W 122°21'2 2.3
2013-Dec-30 21:31N 47°35' W 122°21'0 0.0
2013-Dec-30 20:33N 47°35' W 122°21'0 0.0
2013-Dec-30 19:33N 47°35' W 122°21'2 1.7
2013-Dec-30 18:32N 47°34' W 122°21'  
Track history (hours):
 
Tides and Currents Weather Stations Pressure Air Temp Water Temp Dewpoint Dewpoint Depression Visibility Wind Speed Wind Dir Waves Ship Positions

Mikimiki

More information available from US FCC via Universal Licensing System and Coast Guard Vessel Documentation Center.

Last reported at 2014-Jan-03 22:09 UTC. Time now 2014-Sep-16 03:01 UTC.
Position N 48°12' W 123°56'.
Warning: this ship's position is months out of date.

Type: Tow > 200 m length. MMSI: 338060038.

Date/timePositionNaut miles runAvg speedWind from/ knotsBaromVisibWave heightAir tempDewpointWater temp
2014-Jan-03 22:09N 48°12' W 123°56'3 4.4
2014-Jan-03 21:33N 48°12' W 123°52'4 4.5
2014-Jan-03 20:33N 48°12' W 123°45'5 5.1
2014-Jan-03 19:33N 48°11' W 123°38'5 4.8
2014-Jan-03 18:32N 48°12' W 123°30'4 4.3
2014-Jan-03 17:31N 48°12' W 123°24'4 3.9
2014-Jan-03 16:34N 48°12' W 123°18'4 3.6
2014-Jan-03 15:33N 48°12' W 123°13'3 2.8
2014-Jan-03 14:34N 48°13' W 123°08'2 1.7
2014-Jan-03 13:33N 48°13' W 123°06'1 0.6
2014-Jan-03 12:33N 48°13' W 123°05'1 0.7
2014-Jan-03 11:33N 48°13' W 123°04'1 0.6
2014-Jan-03 10:31N 48°12' W 123°03'37 4.6
2014-Jan-03 02:34N 47°46' W 122°25'7 7.0
2014-Jan-03 01:34N 47°39' W 122°27'5 4.8
2014-Jan-03 00:33N 47°36' W 122°22'0 0.0
2014-Jan-02 23:33N 47°36' W 122°22'2 2.4
2014-Jan-02 22:33N 47°33' W 122°21'0 0.0
2014-Jan-02 21:33N 47°33' W 122°21'  
2013-Dec-30 22:22N 47°33' W 122°21'2 2.3
2013-Dec-30 21:31N 47°35' W 122°21'0 0.0
2013-Dec-30 20:33N 47°35' W 122°21'0 0.0
2013-Dec-30 19:33N 47°35' W 122°21'2 1.7
2013-Dec-30 18:32N 47°34' W 122°21'  

Dump ship's entire track history